Bea Sonier — WDF6688 — position and weather

sailwx.info

Track history (hours):
 
Tides and Currents Weather Stations Pressure Air Temp Water Temp Dewpoint Dewpoint Depression Visibility Wind Speed Wind Dir Waves Ship Positions

Bea Sonier

Owner: LeBeouf Bros. Towing, LLC, Houma, LA. More information available from US FCC via Universal Licensing System and Coast Guard Vessel Documentation Center.

Last reported at 2017-Sep-13 14:17 UTC. Time now 2017-Sep-21 12:27 UTC.
Position N 29°34' W 090°31'.

Length 22 m; draft 3.3 m.

Type: Tug. MMSI: 367476840.

Date/timePositionNaut miles runAvg speedWind from/ knotsBaromVisibWave heightAir tempDewpointWater temp
2017-Sep-13 14:17N 29°34' W 090°31'2 5.5
2017-Sep-13 14:00N 29°34' W 090°32'3 5.4
2017-Sep-13 13:29N 29°35' W 090°35'0 0.8
2017-Sep-13 13:00N 29°35' W 090°36'0 0.0
2017-Sep-13 12:30N 29°35' W 090°36'2 3.4
2017-Sep-13 12:00N 29°35' W 090°38'1 2.2
2017-Sep-13 11:30N 29°35' W 090°39'2 4.1
2017-Sep-13 11:00N 29°36' W 090°41'1 3.0
2017-Sep-13 10:30N 29°36' W 090°43'2 4.0
2017-Sep-13 10:00N 29°34' W 090°43'2 4.2
2017-Sep-13 09:30N 29°33' W 090°45'2 4.5
2017-Sep-13 09:00N 29°32' W 090°47'2 4.5
2017-Sep-13 08:30N 29°32' W 090°50'3 5.9
2017-Sep-13 08:00N 29°33' W 090°53'3 6.1
2017-Sep-13 07:29N 29°34' W 090°57'  
2017-Sep-09 17:29N 29°32' W 090°49'3 6.4
2017-Sep-09 17:00N 29°33' W 090°45'2 4.9
2017-Sep-09 16:30N 29°35' W 090°43'2 4.8
2017-Sep-09 16:00N 29°37' W 090°42'0 0.2
2017-Sep-09 15:30N 29°37' W 090°42'1 2.5
2017-Sep-09 15:00N 29°36' W 090°41'3 6.0
2017-Sep-09 14:30N 29°35' W 090°38'1 2.9
2017-Sep-09 14:00N 29°35' W 090°36'0 0.3
2017-Sep-09 13:30N 29°35' W 090°36'1 1.1
2017-Sep-09 13:00N 29°34' W 090°36'0 0.0
2017-Sep-09 12:30N 29°34' W 090°36'0 0.0
2017-Sep-09 12:00N 29°34' W 090°36'0 0.0
2017-Sep-09 11:30N 29°34' W 090°36'0 0.0
2017-Sep-09 11:00N 29°34' W 090°36'0 0.0
2017-Sep-09 10:30N 29°34' W 090°36'0 0.0
2017-Sep-09 10:00N 29°34' W 090°36'0 0.0
2017-Sep-09 09:30N 29°34' W 090°36'0 0.0
2017-Sep-09 09:00N 29°34' W 090°36'0 0.0
2017-Sep-09 08:30N 29°34' W 090°36'0 0.0
2017-Sep-09 08:00N 29°34' W 090°36'0 0.0
2017-Sep-09 07:30N 29°34' W 090°36'0 0.0
2017-Sep-09 07:00N 29°34' W 090°36'0 0.0
2017-Sep-09 06:30N 29°34' W 090°36'0 0.0
2017-Sep-09 06:00N 29°34' W 090°36'0 0.0
2017-Sep-09 05:30N 29°34' W 090°36'0 0.0
2017-Sep-09 05:00N 29°34' W 090°36'0 0.0
2017-Sep-09 04:30N 29°34' W 090°36'0 0.0
2017-Sep-09 04:00N 29°34' W 090°36'0 0.0
2017-Sep-09 03:30N 29°34' W 090°36'0 0.0
2017-Sep-09 03:00N 29°34' W 090°36'0 0.0
2017-Sep-09 02:30N 29°34' W 090°36'0 0.0
2017-Sep-09 02:00N 29°34' W 090°36'0 0.0
2017-Sep-09 01:30N 29°34' W 090°36'0 0.0
2017-Sep-09 01:00N 29°34' W 090°36'0 0.0
2017-Sep-09 00:30N 29°34' W 090°36'0 0.0
2017-Sep-09 00:00N 29°34' W 090°36'0 0.0
2017-Sep-08 23:30N 29°34' W 090°36'0 0.0
2017-Sep-08 23:00N 29°34' W 090°36'0 0.0
2017-Sep-08 22:30N 29°34' W 090°36'0 0.0
2017-Sep-08 22:00N 29°34' W 090°36'0 0.0
2017-Sep-08 21:30N 29°34' W 090°36'0 0.0
2017-Sep-08 21:00N 29°34' W 090°36'0 0.0
2017-Sep-08 20:29N 29°34' W 090°36'0 0.0
2017-Sep-08 20:00N 29°34' W 090°36'0 0.0
2017-Sep-08 19:30N 29°34' W 090°36'0 0.0
2017-Sep-08 19:00N 29°34' W 090°36'0 0.0
2017-Sep-08 18:30N 29°34' W 090°36'0 0.0
2017-Sep-08 18:00N 29°34' W 090°36'0 0.0
2017-Sep-08 17:30N 29°34' W 090°36'0 0.0
2017-Sep-08 17:00N 29°34' W 090°36'0 0.0
2017-Sep-08 16:30N 29°34' W 090°36'0 0.0
2017-Sep-08 16:00N 29°34' W 090°36'0 0.0
2017-Sep-08 15:30N 29°34' W 090°36'0 0.0
2017-Sep-08 15:00N 29°34' W 090°36'0 0.0
2017-Sep-08 14:30N 29°34' W 090°36'0 0.0
2017-Sep-08 14:00N 29°34' W 090°36'0 0.0
2017-Sep-08 13:30N 29°34' W 090°36'0 0.0
2017-Sep-08 13:00N 29°34' W 090°36'0 0.0
2017-Sep-08 12:30N 29°34' W 090°36'0 0.0
2017-Sep-08 12:00N 29°34' W 090°36'0 0.0
2017-Sep-08 11:30N 29°34' W 090°36'0 0.0
2017-Sep-08 11:00N 29°34' W 090°36'0 0.0
2017-Sep-08 10:30N 29°34' W 090°36'0 0.0
2017-Sep-08 10:00N 29°34' W 090°36'0 0.0
2017-Sep-08 09:30N 29°34' W 090°36'0 0.0
2017-Sep-08 09:00N 29°34' W 090°36'0 0.0
2017-Sep-08 08:30N 29°34' W 090°36'0 0.0
2017-Sep-08 08:00N 29°34' W 090°36'0 0.0
2017-Sep-08 07:30N 29°34' W 090°36'0 0.0
2017-Sep-08 07:00N 29°34' W 090°36'0 0.0
2017-Sep-08 06:30N 29°34' W 090°36'0 0.0
2017-Sep-08 06:00N 29°34' W 090°36'0 0.0
2017-Sep-08 05:30N 29°34' W 090°36'0 0.0
2017-Sep-08 05:00N 29°34' W 090°36'0 0.0
2017-Sep-08 04:30N 29°34' W 090°36'0 0.0
2017-Sep-08 04:00N 29°34' W 090°36'0 0.0
2017-Sep-08 03:30N 29°34' W 090°36'0 0.0
2017-Sep-08 03:00N 29°34' W 090°36'0 0.0
2017-Sep-08 02:30N 29°34' W 090°36'0 0.0
2017-Sep-08 02:00N 29°34' W 090°36'0 0.0
2017-Sep-08 01:30N 29°34' W 090°36'0 0.0
2017-Sep-08 01:00N 29°34' W 090°36'0 0.0
2017-Sep-08 00:30N 29°34' W 090°36'0 0.0
2017-Sep-08 00:00N 29°34' W 090°36'0 0.0
2017-Sep-07 23:29N 29°34' W 090°36'0 0.0
2017-Sep-07 23:00N 29°34' W 090°36'0 0.0
2017-Sep-07 22:30N 29°34' W 090°36'0 0.0
2017-Sep-07 22:00N 29°34' W 090°36'0 0.0
2017-Sep-07 21:30N 29°34' W 090°36'0 0.0
2017-Sep-07 21:00N 29°34' W 090°36'0 0.0
2017-Sep-07 20:30N 29°34' W 090°36'0 0.0
2017-Sep-07 20:00N 29°34' W 090°36'0 0.0
2017-Sep-07 19:30N 29°34' W 090°36'0 0.9
2017-Sep-07 19:00N 29°35' W 090°36'0 0.0
2017-Sep-07 18:30N 29°35' W 090°36'0 0.0
2017-Sep-07 18:00N 29°35' W 090°36'0 0.0
2017-Sep-07 17:30N 29°35' W 090°36'0 0.0
2017-Sep-07 17:00N 29°35' W 090°36'0 0.0
2017-Sep-07 16:30N 29°35' W 090°36'0 0.0
2017-Sep-07 16:00N 29°35' W 090°36'0 0.0
2017-Sep-07 15:30N 29°35' W 090°36'0 0.0
2017-Sep-07 15:00N 29°35' W 090°36'0 0.0
2017-Sep-07 14:30N 29°35' W 090°36'0 0.0
2017-Sep-07 14:00N 29°35' W 090°36'0 0.9
2017-Sep-07 13:29N 29°34' W 090°36'0 0.0
2017-Sep-07 13:00N 29°34' W 090°36'0 0.0
2017-Sep-07 12:30N 29°34' W 090°36'0 0.0
2017-Sep-07 12:00N 29°34' W 090°36'0 0.4
2017-Sep-07 11:30N 29°34' W 090°36'0 0.5
2017-Sep-07 11:00N 29°35' W 090°36'2 5.0
2017-Sep-07 10:30N 29°34' W 090°33'4 7.3
2017-Sep-07 10:00N 29°34' W 090°29'  
Track history (hours):
 
Tides and Currents Weather Stations Pressure Air Temp Water Temp Dewpoint Dewpoint Depression Visibility Wind Speed Wind Dir Waves Ship Positions

Bea Sonier

Owner: LeBeouf Bros. Towing, LLC, Houma, LA. More information available from US FCC via Universal Licensing System and Coast Guard Vessel Documentation Center.

Last reported at 2017-Sep-13 14:17 UTC. Time now 2017-Sep-21 12:27 UTC.
Position N 29°34' W 090°31'.

Length 22 m; draft 3.3 m.

Type: Tug. MMSI: 367476840.

Date/timePositionNaut miles runAvg speedWind from/ knotsBaromVisibWave heightAir tempDewpointWater temp
2017-Sep-13 14:17N 29°34' W 090°31'2 5.5
2017-Sep-13 14:00N 29°34' W 090°32'3 5.4
2017-Sep-13 13:29N 29°35' W 090°35'0 0.8
2017-Sep-13 13:00N 29°35' W 090°36'0 0.0
2017-Sep-13 12:30N 29°35' W 090°36'2 3.4
2017-Sep-13 12:00N 29°35' W 090°38'1 2.2
2017-Sep-13 11:30N 29°35' W 090°39'2 4.1
2017-Sep-13 11:00N 29°36' W 090°41'1 3.0
2017-Sep-13 10:30N 29°36' W 090°43'2 4.0
2017-Sep-13 10:00N 29°34' W 090°43'2 4.2
2017-Sep-13 09:30N 29°33' W 090°45'2 4.5
2017-Sep-13 09:00N 29°32' W 090°47'2 4.5
2017-Sep-13 08:30N 29°32' W 090°50'3 5.9
2017-Sep-13 08:00N 29°33' W 090°53'3 6.1
2017-Sep-13 07:29N 29°34' W 090°57'  
2017-Sep-09 17:29N 29°32' W 090°49'3 6.4
2017-Sep-09 17:00N 29°33' W 090°45'2 4.9
2017-Sep-09 16:30N 29°35' W 090°43'2 4.8
2017-Sep-09 16:00N 29°37' W 090°42'0 0.2
2017-Sep-09 15:30N 29°37' W 090°42'1 2.5
2017-Sep-09 15:00N 29°36' W 090°41'3 6.0
2017-Sep-09 14:30N 29°35' W 090°38'1 2.9
2017-Sep-09 14:00N 29°35' W 090°36'0 0.3
2017-Sep-09 13:30N 29°35' W 090°36'1 1.1
2017-Sep-09 13:00N 29°34' W 090°36'0 0.0
2017-Sep-09 12:30N 29°34' W 090°36'0 0.0
2017-Sep-09 12:00N 29°34' W 090°36'0 0.0
2017-Sep-09 11:30N 29°34' W 090°36'0 0.0
2017-Sep-09 11:00N 29°34' W 090°36'0 0.0
2017-Sep-09 10:30N 29°34' W 090°36'0 0.0
2017-Sep-09 10:00N 29°34' W 090°36'0 0.0
2017-Sep-09 09:30N 29°34' W 090°36'0 0.0
2017-Sep-09 09:00N 29°34' W 090°36'0 0.0
2017-Sep-09 08:30N 29°34' W 090°36'0 0.0
2017-Sep-09 08:00N 29°34' W 090°36'0 0.0
2017-Sep-09 07:30N 29°34' W 090°36'0 0.0
2017-Sep-09 07:00N 29°34' W 090°36'0 0.0
2017-Sep-09 06:30N 29°34' W 090°36'0 0.0
2017-Sep-09 06:00N 29°34' W 090°36'0 0.0
2017-Sep-09 05:30N 29°34' W 090°36'0 0.0
2017-Sep-09 05:00N 29°34' W 090°36'0 0.0
2017-Sep-09 04:30N 29°34' W 090°36'0 0.0
2017-Sep-09 04:00N 29°34' W 090°36'0 0.0
2017-Sep-09 03:30N 29°34' W 090°36'0 0.0
2017-Sep-09 03:00N 29°34' W 090°36'0 0.0
2017-Sep-09 02:30N 29°34' W 090°36'0 0.0
2017-Sep-09 02:00N 29°34' W 090°36'0 0.0
2017-Sep-09 01:30N 29°34' W 090°36'0 0.0
2017-Sep-09 01:00N 29°34' W 090°36'0 0.0
2017-Sep-09 00:30N 29°34' W 090°36'0 0.0
2017-Sep-09 00:00N 29°34' W 090°36'0 0.0
2017-Sep-08 23:30N 29°34' W 090°36'0 0.0
2017-Sep-08 23:00N 29°34' W 090°36'0 0.0
2017-Sep-08 22:30N 29°34' W 090°36'0 0.0
2017-Sep-08 22:00N 29°34' W 090°36'0 0.0
2017-Sep-08 21:30N 29°34' W 090°36'0 0.0
2017-Sep-08 21:00N 29°34' W 090°36'0 0.0
2017-Sep-08 20:29N 29°34' W 090°36'0 0.0
2017-Sep-08 20:00N 29°34' W 090°36'0 0.0
2017-Sep-08 19:30N 29°34' W 090°36'0 0.0
2017-Sep-08 19:00N 29°34' W 090°36'0 0.0
2017-Sep-08 18:30N 29°34' W 090°36'0 0.0
2017-Sep-08 18:00N 29°34' W 090°36'0 0.0
2017-Sep-08 17:30N 29°34' W 090°36'0 0.0
2017-Sep-08 17:00N 29°34' W 090°36'0 0.0
2017-Sep-08 16:30N 29°34' W 090°36'0 0.0
2017-Sep-08 16:00N 29°34' W 090°36'0 0.0
2017-Sep-08 15:30N 29°34' W 090°36'0 0.0
2017-Sep-08 15:00N 29°34' W 090°36'0 0.0
2017-Sep-08 14:30N 29°34' W 090°36'0 0.0
2017-Sep-08 14:00N 29°34' W 090°36'0 0.0
2017-Sep-08 13:30N 29°34' W 090°36'0 0.0
2017-Sep-08 13:00N 29°34' W 090°36'0 0.0
2017-Sep-08 12:30N 29°34' W 090°36'0 0.0
2017-Sep-08 12:00N 29°34' W 090°36'0 0.0
2017-Sep-08 11:30N 29°34' W 090°36'0 0.0
2017-Sep-08 11:00N 29°34' W 090°36'0 0.0
2017-Sep-08 10:30N 29°34' W 090°36'0 0.0
2017-Sep-08 10:00N 29°34' W 090°36'0 0.0
2017-Sep-08 09:30N 29°34' W 090°36'0 0.0
2017-Sep-08 09:00N 29°34' W 090°36'0 0.0
2017-Sep-08 08:30N 29°34' W 090°36'0 0.0
2017-Sep-08 08:00N 29°34' W 090°36'0 0.0
2017-Sep-08 07:30N 29°34' W 090°36'0 0.0
2017-Sep-08 07:00N 29°34' W 090°36'0 0.0
2017-Sep-08 06:30N 29°34' W 090°36'0 0.0
2017-Sep-08 06:00N 29°34' W 090°36'0 0.0
2017-Sep-08 05:30N 29°34' W 090°36'0 0.0
2017-Sep-08 05:00N 29°34' W 090°36'0 0.0
2017-Sep-08 04:30N 29°34' W 090°36'0 0.0
2017-Sep-08 04:00N 29°34' W 090°36'0 0.0
2017-Sep-08 03:30N 29°34' W 090°36'0 0.0
2017-Sep-08 03:00N 29°34' W 090°36'0 0.0
2017-Sep-08 02:30N 29°34' W 090°36'0 0.0
2017-Sep-08 02:00N 29°34' W 090°36'0 0.0
2017-Sep-08 01:30N 29°34' W 090°36'0 0.0
2017-Sep-08 01:00N 29°34' W 090°36'0 0.0
2017-Sep-08 00:30N 29°34' W 090°36'0 0.0
2017-Sep-08 00:00N 29°34' W 090°36'0 0.0
2017-Sep-07 23:29N 29°34' W 090°36'0 0.0
2017-Sep-07 23:00N 29°34' W 090°36'0 0.0
2017-Sep-07 22:30N 29°34' W 090°36'0 0.0
2017-Sep-07 22:00N 29°34' W 090°36'0 0.0
2017-Sep-07 21:30N 29°34' W 090°36'0 0.0
2017-Sep-07 21:00N 29°34' W 090°36'0 0.0
2017-Sep-07 20:30N 29°34' W 090°36'0 0.0
2017-Sep-07 20:00N 29°34' W 090°36'0 0.0
2017-Sep-07 19:30N 29°34' W 090°36'0 0.9
2017-Sep-07 19:00N 29°35' W 090°36'0 0.0
2017-Sep-07 18:30N 29°35' W 090°36'0 0.0
2017-Sep-07 18:00N 29°35' W 090°36'0 0.0
2017-Sep-07 17:30N 29°35' W 090°36'0 0.0
2017-Sep-07 17:00N 29°35' W 090°36'0 0.0
2017-Sep-07 16:30N 29°35' W 090°36'0 0.0
2017-Sep-07 16:00N 29°35' W 090°36'0 0.0
2017-Sep-07 15:30N 29°35' W 090°36'0 0.0
2017-Sep-07 15:00N 29°35' W 090°36'0 0.0
2017-Sep-07 14:30N 29°35' W 090°36'0 0.0
2017-Sep-07 14:00N 29°35' W 090°36'0 0.9
2017-Sep-07 13:29N 29°34' W 090°36'0 0.0
2017-Sep-07 13:00N 29°34' W 090°36'0 0.0
2017-Sep-07 12:30N 29°34' W 090°36'0 0.0
2017-Sep-07 12:00N 29°34' W 090°36'0 0.4
2017-Sep-07 11:30N 29°34' W 090°36'0 0.5
2017-Sep-07 11:00N 29°35' W 090°36'2 5.0
2017-Sep-07 10:30N 29°34' W 090°33'4 7.3
2017-Sep-07 10:00N 29°34' W 090°29'  

Dump ship's entire track history